createdAt,value
2019-04-21T00:00:35.351Z,6.67
2019-04-21T00:01:38.767Z,6.64
2019-04-21T00:02:37.756Z,6.67
2019-04-21T00:03:40.704Z,6.67
2019-04-21T00:04:46.862Z,6.63
2019-04-21T00:05:52.927Z,6.60
2019-04-21T00:07:01.243Z,6.55
2019-04-21T00:07:50.713Z,6.46
2019-04-21T00:08:56.283Z,6.34
2019-04-21T00:11:59.864Z,6.37
2019-04-21T00:12:51.782Z,6.19
2019-04-21T00:13:49.615Z,6.27
2019-04-21T00:14:46.255Z,6.16
2019-04-21T00:15:40.636Z,6.21
2019-04-21T00:16:43.226Z,6.27
2019-04-21T00:17:35.022Z,6.27
2019-04-21T00:18:40.860Z,6.31
2019-04-21T00:20:42.454Z,6.37
2019-04-21T00:21:40.415Z,6.31
2019-04-21T00:24:46.208Z,6.37
2019-04-21T00:25:45.850Z,6.37
2019-04-21T00:26:55.673Z,6.38
2019-04-21T00:27:51.968Z,6.32
2019-04-21T00:28:59.497Z,6.32
2019-04-21T00:29:56.943Z,6.24
2019-04-21T00:31:45.809Z,6.25
2019-04-21T00:32:46.323Z,6.27
2019-04-21T00:33:37.099Z,6.16
2019-04-21T00:34:34.296Z,6.21
2019-04-21T00:35:41.378Z,6.19
2019-04-21T00:36:44.172Z,6.19
2019-04-21T00:37:53.462Z,6.15
2019-04-21T00:40:56.646Z,6.15
2019-04-21T00:41:54.332Z,6.15
2019-04-21T00:42:48.861Z,6.12
2019-04-21T00:43:44.742Z,6.13
2019-04-21T00:44:47.300Z,6.05
2019-04-21T00:45:44.676Z,6.15
2019-04-21T00:46:48.854Z,6.16
2019-04-21T00:47:52.927Z,6.09
2019-04-21T00:48:53.578Z,6.09
2019-04-21T00:49:56.540Z,6.08
2019-04-21T00:51:14.592Z,6.08
2019-04-21T00:52:04.019Z,5.93
2019-04-21T00:54:02.382Z,5.94
2019-04-21T00:54:58.557Z,5.90
2019-04-21T00:55:56.176Z,5.80
2019-04-21T00:56:56.741Z,5.87
2019-04-21T00:58:00.393Z,5.90
2019-04-21T00:58:53.732Z,5.85
2019-04-21T00:59:54.363Z,5.82
2019-04-21T01:00:51.378Z,5.79
2019-04-21T01:01:57.980Z,5.67
2019-04-21T01:02:57.597Z,5.67
2019-04-21T01:04:00.254Z,5.70
2019-04-21T01:05:00.003Z,5.65
2019-04-21T01:06:56.183Z,5.48
2019-04-21T01:07:50.712Z,5.59
2019-04-21T01:08:55.056Z,5.51
2019-04-21T01:09:49.058Z,5.55
2019-04-21T01:10:49.278Z,5.51
2019-04-21T01:11:59.616Z,5.65
2019-04-21T01:12:54.676Z,5.51
2019-04-21T01:14:01.040Z,5.66
2019-04-21T01:14:56.101Z,5.48
2019-04-21T01:15:53.330Z,5.44
2019-04-21T01:16:58.182Z,5.37
2019-04-21T01:17:54.632Z,5.30
2019-04-21T01:18:49.319Z,5.27
2019-04-21T01:19:47.036Z,5.25
2019-04-21T01:21:31.937Z,5.16
2019-04-21T01:22:31.913Z,5.18
2019-04-21T01:23:33.641Z,5.11
2019-04-21T01:24:36.131Z,5.04
2019-04-21T01:25:40.449Z,5.00
2019-04-21T01:26:44.898Z,5.01
2019-04-21T01:27:50.728Z,5.01
2019-04-21T01:29:53.355Z,4.96
2019-04-21T01:30:55.368Z,4.96
2019-04-21T01:31:51.684Z,4.93
2019-04-21T01:33:50.602Z,4.94
2019-04-21T01:34:51.622Z,4.93
2019-04-21T01:35:48.462Z,5.01
2019-04-21T01:36:51.411Z,5.03
2019-04-21T01:38:10.993Z,5.03
2019-04-21T01:38:58.331Z,5.03
2019-04-21T01:40:52.954Z,5.03
2019-04-21T01:41:53.344Z,5.06
2019-04-21T01:42:53.935Z,5.01
2019-04-21T01:43:53.452Z,5.09
2019-04-21T01:44:53.530Z,5.12
2019-04-21T01:45:48.668Z,5.09
2019-04-21T01:46:49.041Z,5.12
2019-04-21T01:47:46.452Z,4.97
2019-04-21T01:48:45.944Z,4.97
2019-04-21T01:49:43.177Z,4.93
2019-04-21T01:50:51.034Z,4.93
2019-04-21T01:52:05.533Z,4.97
2019-04-21T01:53:14.701Z,4.96
2019-04-21T01:53:59.570Z,4.94
2019-04-21T01:54:55.215Z,4.96
2019-04-21T01:55:54.387Z,4.96
2019-04-21T01:56:51.346Z,4.93
2019-04-21T01:57:51.240Z,4.94
2019-04-21T01:58:42.900Z,4.82
2019-04-21T01:59:47.352Z,4.88
2019-04-21T02:00:45.571Z,4.83
2019-04-21T02:01:54.161Z,4.86
2019-04-21T02:03:58.270Z,4.86
2019-04-21T02:04:57.960Z,4.93
2019-04-21T02:06:00.059Z,4.93
2019-04-21T02:06:50.426Z,4.74
2019-04-21T02:07:49.455Z,4.82
2019-04-21T02:08:49.300Z,4.69
2019-04-21T02:09:49.211Z,4.86
2019-04-21T02:10:54.915Z,4.67
2019-04-21T02:11:56.755Z,4.71
2019-04-21T02:12:50.895Z,4.75
2019-04-21T02:15:00.759Z,4.75
2019-04-21T02:15:55.527Z,4.72
2019-04-21T02:16:54.094Z,4.69
2019-04-21T02:17:57.500Z,4.69
2019-04-21T02:18:52.973Z,4.64
2019-04-21T02:19:45.847Z,4.66
2019-04-21T02:20:43.461Z,4.66
2019-04-21T02:21:46.314Z,4.53
2019-04-21T02:23:06.086Z,4.57
2019-04-21T02:24:17.119Z,4.46
2019-04-21T02:24:56.752Z,4.48
2019-04-21T02:26:55.917Z,4.39
2019-04-21T02:27:57.779Z,4.39
2019-04-21T02:28:55.842Z,4.38
2019-04-21T02:29:55.623Z,4.27
2019-04-21T02:31:05.965Z,4.27
2019-04-21T02:32:01.869Z,4.26
2019-04-21T02:33:58.621Z,4.24
2019-04-21T02:35:14.623Z,4.21
2019-04-21T02:36:15.096Z,4.17
2019-04-21T02:37:19.571Z,4.20
2019-04-21T02:39:08.374Z,4.12
2019-04-21T02:40:05.095Z,4.12
2019-04-21T02:43:07.512Z,3.99
2019-04-21T02:44:59.865Z,3.88
2019-04-21T02:46:10.562Z,3.96
2019-04-21T02:49:07.180Z,4.00
2019-04-21T02:50:52.956Z,3.98
2019-04-21T02:52:01.589Z,3.85
2019-04-21T02:53:07.116Z,3.85
2019-04-21T02:54:34.069Z,3.92
2019-04-21T02:55:02.345Z,3.88
2019-04-21T02:56:00.709Z,3.88
2019-04-21T02:57:04.672Z,3.91
2019-04-21T02:58:07.550Z,3.84
2019-04-21T02:58:59.394Z,3.80
2019-04-21T03:01:03.306Z,3.82
2019-04-21T03:02:17.225Z,3.88
2019-04-21T03:03:06.429Z,3.78
2019-04-21T03:04:00.688Z,3.78
2019-04-21T03:05:09.261Z,3.74
2019-04-21T03:05:58.635Z,3.73
2019-04-21T03:07:11.404Z,3.60
2019-04-21T03:08:14.360Z,3.60
2019-04-21T03:08:59.085Z,3.67
2019-04-21T03:10:02.315Z,3.51
2019-04-21T03:11:05.299Z,3.55
2019-04-21T03:13:06.060Z,3.56
2019-04-21T03:14:14.024Z,3.51
2019-04-21T03:16:09.796Z,3.46
2019-04-21T03:17:03.453Z,3.48
2019-04-21T03:18:12.641Z,3.46
2019-04-21T03:19:06.807Z,3.52
2019-04-21T03:20:03.110Z,3.55
2019-04-21T03:21:10.869Z,3.55
2019-04-21T03:22:05.201Z,3.52
2019-04-21T03:25:21.367Z,3.67
2019-04-21T03:26:20.703Z,3.51
2019-04-21T03:27:09.831Z,3.52
2019-04-21T03:28:08.286Z,3.60
2019-04-21T03:30:01.027Z,3.63
2019-04-21T03:31:24.997Z,3.60
2019-04-21T03:35:33.988Z,3.66
2019-04-21T03:38:59.139Z,3.64
2019-04-21T03:40:05.170Z,3.62
2019-04-21T03:42:57.159Z,3.62
2019-04-21T03:43:59.314Z,3.55
2019-04-21T03:48:05.126Z,3.59
2019-04-21T03:49:02.336Z,3.60
2019-04-21T03:50:07.122Z,3.55
2019-04-21T03:50:56.307Z,3.48
2019-04-21T03:52:03.348Z,3.33
2019-04-21T03:57:10.954Z,3.32
2019-04-21T03:59:12.289Z,3.29
2019-04-21T04:00:06.286Z,3.25
2019-04-21T04:01:04.241Z,3.35
2019-04-21T04:02:10.716Z,3.30
2019-04-21T04:03:13.432Z,3.32
2019-04-21T04:05:07.249Z,3.25
2019-04-21T04:10:06.485Z,3.09
2019-04-21T04:11:12.040Z,3.05
2019-04-21T04:11:58.355Z,3.11
2019-04-21T04:12:57.719Z,3.07
2019-04-21T04:14:03.858Z,3.08
2019-04-21T04:14:50.210Z,3.14
2019-04-21T04:16:06.076Z,3.08
2019-04-21T04:17:56.419Z,3.07
2019-04-21T04:21:03.580Z,3.07
2019-04-21T04:23:15.045Z,3.04
2019-04-21T04:24:13.019Z,2.89
2019-04-21T04:25:07.444Z,2.91
2019-04-21T04:26:02.350Z,2.96
2019-04-21T04:27:08.018Z,2.99
2019-04-21T04:33:01.232Z,2.96
2019-04-21T04:34:04.517Z,3.02
2019-04-21T04:35:03.272Z,2.90
2019-04-21T04:37:59.982Z,3.09
2019-04-21T04:39:04.048Z,3.07
2019-04-21T04:40:00.520Z,3.17
2019-04-21T04:42:04.863Z,3.15
2019-04-21T04:42:55.628Z,3.17
2019-04-21T04:44:04.875Z,3.25
2019-04-21T04:45:08.315Z,3.30
2019-04-21T04:47:05.843Z,3.41
2019-04-21T04:49:53.473Z,3.49
2019-04-21T04:52:09.738Z,3.63
2019-04-21T04:53:03.506Z,3.56
2019-04-21T04:53:51.198Z,3.64
2019-04-21T04:56:01.802Z,3.64
2019-04-21T04:58:04.699Z,3.69
2019-04-21T05:02:14.971Z,3.82
2019-04-21T05:03:58.013Z,3.94
2019-04-21T05:06:10.674Z,3.91
2019-04-21T05:07:03.531Z,4.03
2019-04-21T05:08:03.308Z,4.05
2019-04-21T05:10:05.801Z,4.24
2019-04-21T05:11:07.896Z,4.21
2019-04-21T05:12:12.020Z,4.21
2019-04-21T05:14:03.000Z,4.21
2019-04-21T05:16:02.187Z,4.45
2019-04-21T05:16:55.149Z,4.46
2019-04-21T05:19:06.466Z,4.53
2019-04-21T05:21:04.047Z,4.54
2019-04-21T05:22:14.174Z,4.66
2019-04-21T05:22:58.148Z,4.64
2019-04-21T05:23:48.545Z,4.66
2019-04-21T05:24:44.179Z,4.67
2019-04-21T05:25:41.516Z,4.72
2019-04-21T05:27:44.823Z,4.82
2019-04-21T05:28:37.050Z,4.82
2019-04-21T05:29:55.653Z,4.94
2019-04-21T05:30:48.965Z,5.03
2019-04-21T05:31:49.629Z,5.06
2019-04-21T05:32:56.919Z,5.16
2019-04-21T05:33:44.893Z,5.25
2019-04-21T05:34:42.980Z,5.24
2019-04-21T05:36:46.034Z,5.44
2019-04-21T05:38:43.623Z,5.58
2019-04-21T05:39:42.330Z,5.69
2019-04-21T05:40:39.876Z,5.82
2019-04-21T05:41:37.306Z,5.84
2019-04-21T05:42:39.863Z,5.98
2019-04-21T05:43:46.313Z,6.06
2019-04-21T05:45:50.002Z,6.13
2019-04-21T05:47:02.382Z,6.18
2019-04-21T05:47:46.272Z,6.21
2019-04-21T05:48:48.287Z,6.31
2019-04-21T05:49:45.209Z,6.47
2019-04-21T05:50:46.626Z,6.42
2019-04-21T05:51:39.888Z,6.60
2019-04-21T05:52:40.767Z,6.57
2019-04-21T05:53:49.282Z,6.56
2019-04-21T05:54:50.201Z,6.68
2019-04-21T05:55:50.961Z,6.79
2019-04-21T05:56:53.874Z,6.73
2019-04-21T05:57:47.380Z,6.78
2019-04-21T05:58:54.171Z,6.79
2019-04-21T05:59:51.649Z,6.92
2019-04-21T06:01:47.034Z,7.01
2019-04-21T06:02:49.553Z,7.01
2019-04-21T06:03:49.255Z,7.18
2019-04-21T06:05:14.480Z,7.28
2019-04-21T06:06:45.941Z,7.28
2019-04-21T06:07:46.153Z,7.36
2019-04-21T06:08:46.921Z,7.50
2019-04-21T06:09:51.393Z,7.50
2019-04-21T06:10:52.388Z,7.58
2019-04-21T06:11:59.813Z,7.66
2019-04-21T06:12:51.021Z,7.83
2019-04-21T06:13:58.398Z,7.81
2019-04-21T06:14:52.117Z,7.95
2019-04-21T06:16:54.490Z,8.09
2019-04-21T06:17:54.992Z,8.20
2019-04-21T06:18:53.172Z,8.17
2019-04-21T06:19:49.618Z,8.32
2019-04-21T06:20:46.670Z,8.39
2019-04-21T06:21:45.520Z,8.31
2019-04-21T06:22:53.248Z,8.37
2019-04-21T06:23:46.570Z,8.52
2019-04-21T06:25:14.581Z,8.63
2019-04-21T06:27:46.101Z,8.75
2019-04-21T06:29:02.787Z,8.78
2019-04-21T06:29:50.128Z,8.86
2019-04-21T06:32:12.711Z,8.92
2019-04-21T06:32:49.048Z,9.08
2019-04-21T06:35:07.160Z,9.24
2019-04-21T06:35:58.813Z,9.24
2019-04-21T06:36:47.474Z,9.33
2019-04-21T06:37:49.149Z,9.36
2019-04-21T06:38:59.696Z,9.50
2019-04-21T06:40:03.281Z,9.60
2019-04-21T06:40:48.388Z,9.59
2019-04-21T06:41:58.520Z,9.65
2019-04-21T06:42:53.897Z,9.65
2019-04-21T06:44:53.791Z,9.88
2019-04-21T06:45:52.681Z,9.96
2019-04-21T06:46:45.923Z,10.05
2019-04-21T06:47:53.967Z,10.03
2019-04-21T06:48:49.774Z,10.12
2019-04-21T06:51:43.325Z,10.30
2019-04-21T06:53:54.510Z,10.55
2019-04-21T06:54:50.262Z,10.57
2019-04-21T06:55:44.077Z,10.62
2019-04-21T06:56:47.915Z,10.68
2019-04-21T06:57:50.074Z,10.73
2019-04-21T06:58:48.072Z,10.75
2019-04-21T06:59:43.429Z,10.76
2019-04-21T07:00:41.123Z,10.87
2019-04-21T07:01:48.789Z,10.98
2019-04-21T07:02:54.917Z,11.11
2019-04-21T07:03:55.486Z,11.16
2019-04-21T07:04:50.443Z,11.16
2019-04-21T07:05:52.098Z,11.18
2019-04-21T07:06:51.655Z,11.30
2019-04-21T07:07:54.912Z,11.34
2019-04-21T07:09:52.687Z,11.45
2019-04-21T07:10:43.537Z,11.54
2019-04-21T07:11:44.990Z,11.62
2019-04-21T07:12:48.270Z,11.70
2019-04-21T07:13:50.969Z,11.70
2019-04-21T07:14:43.792Z,11.74
2019-04-21T07:15:43.941Z,11.88
2019-04-21T07:16:50.880Z,12.00
2019-04-21T07:17:45.716Z,12.05
2019-04-21T07:18:53.776Z,12.14
2019-04-21T07:20:50.446Z,12.23
2019-04-21T07:22:50.972Z,12.47
2019-04-21T07:23:47.218Z,12.50
2019-04-21T07:24:42.807Z,12.73
2019-04-21T07:25:48.039Z,12.88
2019-04-21T07:26:44.516Z,13.21
2019-04-21T07:28:47.918Z,14.05
2019-04-21T07:29:47.468Z,14.56
2019-04-21T07:31:54.379Z,15.32
2019-04-21T07:32:49.425Z,15.66
2019-04-21T07:33:54.318Z,15.83
2019-04-21T07:34:45.919Z,16.00
2019-04-21T07:35:46.086Z,16.18
2019-04-21T07:36:52.634Z,16.43
2019-04-21T07:38:41.161Z,16.79
2019-04-21T07:39:46.560Z,17.01
2019-04-21T07:40:38.888Z,17.13
2019-04-21T07:42:39.986Z,17.27
2019-04-21T07:43:40.946Z,17.35
2019-04-21T07:44:35.009Z,17.45
2019-04-21T07:45:40.165Z,17.66
2019-04-21T07:46:38.054Z,17.88
2019-04-21T07:47:39.640Z,18.05
2019-04-21T07:48:46.172Z,17.94
2019-04-21T07:49:46.706Z,18.03
2019-04-21T07:50:46.905Z,17.91
2019-04-21T07:51:47.746Z,17.97
2019-04-21T07:52:49.290Z,18.09
2019-04-21T07:53:51.318Z,18.31
2019-04-21T07:54:55.479Z,18.49
2019-04-21T07:56:30.830Z,18.83
2019-04-21T07:57:37.559Z,19.23
2019-04-21T07:58:49.054Z,19.60
2019-04-21T07:59:55.137Z,19.84
2019-04-21T08:01:45.332Z,19.94
2019-04-21T08:02:40.317Z,20.29
2019-04-21T08:03:46.764Z,20.11
2019-04-21T08:04:55.842Z,20.07
2019-04-21T08:05:45.745Z,20.33
2019-04-21T08:06:46.467Z,20.52
2019-04-21T08:07:52.158Z,20.79
2019-04-21T08:08:41.072Z,21.14
2019-04-21T08:09:40.944Z,21.37
2019-04-21T08:10:39.152Z,21.58
2019-04-21T08:11:37.084Z,21.59
2019-04-21T08:12:37.962Z,21.94
2019-04-21T08:14:43.528Z,22.43
2019-04-21T08:15:44.601Z,22.51
2019-04-21T08:17:42.618Z,22.46
2019-04-21T08:18:48.693Z,22.68
2019-04-21T08:20:44.149Z,21.81
2019-04-21T08:22:46.806Z,22.03
2019-04-21T08:23:41.590Z,22.22
2019-04-21T08:24:47.068Z,22.04
2019-04-21T08:25:52.927Z,21.77
2019-04-21T08:26:44.952Z,21.91
2019-04-21T08:27:52.621Z,22.15
2019-04-21T08:28:49.499Z,22.53
2019-04-21T08:29:47.744Z,23.03
2019-04-21T08:30:43.160Z,22.98
2019-04-21T08:32:02.890Z,22.91
2019-04-21T08:32:52.797Z,23.01
2019-04-21T08:34:02.019Z,23.22
2019-04-21T08:34:49.649Z,23.06
2019-04-21T08:36:05.952Z,23.14
2019-04-21T08:36:40.294Z,23.21
2019-04-21T08:37:43.346Z,23.28
2019-04-21T08:38:45.998Z,23.13
2019-04-21T08:39:47.861Z,23.49
2019-04-21T08:41:48.442Z,23.84
2019-04-21T08:42:46.647Z,24.04
2019-04-21T08:44:49.293Z,24.60
2019-04-21T08:45:45.331Z,24.13
2019-04-21T08:46:50.776Z,24.10
2019-04-21T08:48:43.918Z,24.36
2019-04-21T08:49:45.437Z,24.34
2019-04-21T08:50:44.156Z,24.16
2019-04-21T08:52:04.075Z,24.06
2019-04-21T08:53:47.647Z,24.74
2019-04-21T08:54:44.899Z,24.44
2019-04-21T08:55:39.741Z,24.25
2019-04-21T08:56:41.657Z,24.65
2019-04-21T08:57:50.670Z,25.18
2019-04-21T08:58:41.499Z,25.38
2019-04-21T09:00:46.832Z,25.33
2019-04-21T09:01:47.390Z,25.48
2019-04-21T09:02:43.135Z,25.37
2019-04-21T09:04:41.106Z,25.37
2019-04-21T09:05:45.639Z,25.38
2019-04-21T09:06:54.097Z,25.58
2019-04-21T09:07:44.732Z,25.88
2019-04-21T09:08:39.638Z,25.77
2019-04-21T09:10:39.191Z,25.70
2019-04-21T09:11:40.420Z,25.78
2019-04-21T09:13:42.611Z,26.49
2019-04-21T09:14:41.929Z,26.53
2019-04-21T09:15:44.058Z,26.63
2019-04-21T09:16:39.677Z,26.28
2019-04-21T09:20:47.367Z,26.26
2019-04-21T09:21:45.556Z,26.52
2019-04-21T09:22:36.632Z,26.60
2019-04-21T09:23:39.193Z,26.39
2019-04-21T09:24:41.027Z,26.60
2019-04-21T09:26:34.931Z,26.11
2019-04-21T09:27:36.627Z,26.46
2019-04-21T09:28:37.078Z,26.46
2019-04-21T09:30:22.090Z,26.33
2019-04-21T09:31:28.260Z,26.31
2019-04-21T09:32:25.211Z,26.31
2019-04-21T09:34:30.084Z,26.34
2019-04-21T09:35:22.704Z,26.19
2019-04-21T09:36:25.474Z,25.95
2019-04-21T09:37:33.000Z,26.04
2019-04-21T09:38:29.848Z,25.90
2019-04-21T09:39:25.558Z,25.93
2019-04-21T09:40:30.109Z,26.00
2019-04-21T09:42:32.288Z,26.16
2019-04-21T09:43:30.747Z,26.08
2019-04-21T09:45:22.950Z,26.20
2019-04-21T09:46:23.107Z,26.79
2019-04-21T09:47:24.806Z,26.88
2019-04-21T09:48:24.220Z,26.94
2019-04-21T09:49:27.021Z,26.83
2019-04-21T09:50:22.232Z,26.68
2019-04-21T09:51:21.867Z,26.93
2019-04-21T09:54:27.776Z,27.10
2019-04-21T09:55:25.049Z,27.03
2019-04-21T09:56:31.162Z,26.67
2019-04-21T09:58:31.070Z,26.76
2019-04-21T09:59:28.447Z,26.64
2019-04-21T10:00:25.255Z,26.68
2019-04-21T10:01:31.807Z,26.65
2019-04-21T10:02:35.653Z,26.63
2019-04-21T10:03:23.096Z,26.75
2019-04-21T10:04:23.095Z,26.95
2019-04-21T10:05:21.860Z,27.19
2019-04-21T10:06:21.989Z,27.60
2019-04-21T10:08:22.893Z,27.53
2019-04-21T10:09:22.075Z,27.15
2019-04-21T10:10:22.950Z,26.90
2019-04-21T10:11:22.608Z,26.93
2019-04-21T10:12:21.898Z,27.04
2019-04-21T10:13:22.987Z,27.37
2019-04-21T10:15:23.607Z,27.54
2019-04-21T10:16:22.260Z,27.27
2019-04-21T10:17:21.973Z,27.82
2019-04-21T10:18:22.109Z,27.82
2019-04-21T10:19:23.246Z,28.00
2019-04-21T10:20:22.364Z,27.97
2019-04-21T10:21:24.460Z,28.07
2019-04-21T10:22:23.243Z,27.88
2019-04-21T10:25:22.826Z,27.78
2019-04-21T10:30:22.496Z,27.98
2019-04-21T10:32:25.358Z,27.72
2019-04-21T10:33:42.338Z,27.54
2019-04-21T10:34:23.551Z,27.32
2019-04-21T10:35:24.337Z,27.50
2019-04-21T10:39:22.428Z,27.88
2019-04-21T10:40:23.370Z,27.94
2019-04-21T10:41:23.299Z,28.07
2019-04-21T10:42:21.944Z,27.83
2019-04-21T10:43:22.608Z,28.15
2019-04-21T10:44:23.143Z,28.47
2019-04-21T10:45:23.089Z,28.17
2019-04-21T10:47:22.794Z,28.40
2019-04-21T10:49:22.586Z,28.68
2019-04-21T10:50:25.179Z,28.75
2019-04-21T10:52:22.855Z,28.03
2019-04-21T10:53:22.913Z,27.94
2019-04-21T10:54:22.002Z,27.70
2019-04-21T10:55:41.058Z,27.78
2019-04-21T10:57:22.445Z,28.56
2019-04-21T10:58:22.681Z,28.80
2019-04-21T10:59:22.621Z,28.38
2019-04-21T11:00:21.788Z,28.56
2019-04-21T11:01:23.062Z,28.84
2019-04-21T11:02:23.031Z,29.19
2019-04-21T11:06:22.147Z,28.43
2019-04-21T11:07:27.530Z,28.64
2019-04-21T11:08:25.564Z,28.35
2019-04-21T11:09:22.057Z,28.10
2019-04-21T11:10:23.234Z,28.00
2019-04-21T11:11:23.897Z,28.22
2019-04-21T11:12:21.808Z,28.42
2019-04-21T11:13:23.002Z,28.35
2019-04-21T11:14:23.028Z,28.44
2019-04-21T11:15:23.231Z,28.54
2019-04-21T11:16:21.823Z,28.13
2019-04-21T11:18:23.958Z,27.98
2019-04-21T11:19:22.239Z,28.01
2019-04-21T11:20:22.794Z,28.09
2019-04-21T11:22:23.061Z,28.96
2019-04-21T11:23:23.030Z,29.27
2019-04-21T11:24:23.030Z,29.13
2019-04-21T11:26:22.096Z,29.66
2019-04-21T11:27:22.623Z,29.68
2019-04-21T11:28:22.882Z,29.50
2019-04-21T11:29:23.284Z,29.68
2019-04-21T11:30:23.236Z,29.81
2019-04-21T11:31:22.938Z,29.70
2019-04-21T11:32:23.351Z,29.44
2019-04-21T11:33:22.811Z,29.84
2019-04-21T11:34:22.996Z,29.33
2019-04-21T11:35:21.781Z,29.34
2019-04-21T11:36:22.326Z,29.31
2019-04-21T11:37:21.981Z,29.31
2019-04-21T11:38:25.305Z,29.18
2019-04-21T11:41:23.726Z,28.66
2019-04-21T11:42:23.783Z,28.79
2019-04-21T11:44:24.613Z,28.90
2019-04-21T11:45:22.234Z,29.19
2019-04-21T11:46:22.477Z,29.34
2019-04-21T11:47:23.075Z,29.68
2019-04-21T11:49:22.355Z,29.74
2019-04-21T11:50:22.970Z,29.70
2019-04-21T11:51:22.776Z,29.61
2019-04-21T11:53:23.177Z,29.61
2019-04-21T11:54:22.586Z,29.96
2019-04-21T11:55:22.911Z,29.89
2019-04-21T11:56:23.091Z,29.87
2019-04-21T11:57:27.842Z,29.73
2019-04-21T11:58:21.922Z,29.63
2019-04-21T11:59:21.842Z,29.24
2019-04-21T12:00:22.046Z,29.06
2019-04-21T12:02:21.967Z,29.13
2019-04-21T12:03:22.159Z,29.29
2019-04-21T12:05:23.580Z,29.81
2019-04-21T12:06:28.596Z,29.89
2019-04-21T12:07:22.935Z,29.98
2019-04-21T12:08:30.292Z,30.24
2019-04-21T12:09:23.087Z,30.14
2019-04-21T12:11:25.126Z,30.18
2019-04-21T12:12:23.199Z,30.10
2019-04-21T12:17:23.626Z,29.31
2019-04-21T12:18:22.251Z,29.09
2019-04-21T12:19:22.864Z,29.25
2019-04-21T12:20:21.939Z,29.37
2019-04-21T12:23:22.785Z,30.11
2019-04-21T12:24:22.402Z,30.10
2019-04-21T12:26:22.121Z,29.68
2019-04-21T12:27:22.252Z,30.13
2019-04-21T12:30:23.920Z,30.46
2019-04-21T12:31:23.443Z,30.62
2019-04-21T12:33:22.352Z,30.35
2019-04-21T12:34:21.918Z,30.55
2019-04-21T12:35:21.989Z,29.68
2019-04-21T12:36:22.219Z,29.78
2019-04-21T12:37:22.765Z,29.83
2019-04-21T12:38:32.104Z,29.89
2019-04-21T12:39:23.040Z,30.11
2019-04-21T12:40:22.476Z,30.59
2019-04-21T12:41:22.596Z,29.93
2019-04-21T12:42:22.872Z,30.26
2019-04-21T12:43:21.811Z,30.37
2019-04-21T12:44:22.581Z,30.70
2019-04-21T12:45:22.116Z,30.55
2019-04-21T12:49:22.159Z,30.80
2019-04-21T12:50:21.653Z,30.83
2019-04-21T12:51:21.948Z,30.70
2019-04-21T12:53:23.409Z,30.71
2019-04-21T12:54:22.031Z,30.78
2019-04-21T12:56:23.284Z,30.40
2019-04-21T12:57:21.660Z,30.37
2019-04-21T12:58:21.656Z,30.80
2019-04-21T12:59:22.046Z,30.86
2019-04-21T13:01:23.074Z,30.49
2019-04-21T13:02:21.978Z,30.45
2019-04-21T13:03:23.381Z,30.21
2019-04-21T13:04:21.873Z,30.20
2019-04-21T13:05:21.998Z,30.46
2019-04-21T13:06:21.962Z,30.26
2019-04-21T13:07:21.789Z,30.29
2019-04-21T13:08:21.788Z,29.95
2019-04-21T13:09:22.225Z,29.89
2019-04-21T13:10:22.208Z,30.29
2019-04-21T13:11:21.797Z,30.60
2019-04-21T13:12:22.859Z,30.92
2019-04-21T13:13:23.916Z,30.77
2019-04-21T13:14:22.126Z,30.32
2019-04-21T13:15:21.915Z,30.10
2019-04-21T13:16:21.676Z,30.13
2019-04-21T13:19:23.077Z,30.15
2019-04-21T13:20:23.203Z,30.20
2019-04-21T13:21:22.445Z,30.28
2019-04-21T13:22:21.753Z,30.78
2019-04-21T13:23:23.094Z,30.73
2019-04-21T13:24:22.075Z,30.73
2019-04-21T13:25:21.726Z,30.82
2019-04-21T13:26:30.561Z,30.93
2019-04-21T13:27:22.657Z,30.64
2019-04-21T13:28:22.790Z,30.67
2019-04-21T13:29:21.667Z,30.92
2019-04-21T13:30:22.317Z,30.77
2019-04-21T13:31:22.369Z,30.18
2019-04-21T13:32:21.739Z,30.02
2019-04-21T13:33:22.871Z,30.32
2019-04-21T13:34:22.211Z,30.28
2019-04-21T13:35:23.025Z,30.48
2019-04-21T13:36:23.348Z,30.28
2019-04-21T13:38:32.588Z,30.55
2019-04-21T13:40:39.788Z,30.46
2019-04-21T13:41:40.897Z,30.73
2019-04-21T13:42:31.408Z,30.77
2019-04-21T13:43:23.141Z,30.78
2019-04-21T13:44:23.299Z,30.68
2019-04-21T13:45:21.979Z,30.59
2019-04-21T13:46:22.811Z,30.58
2019-04-21T13:47:22.754Z,30.62
2019-04-21T13:48:22.404Z,30.36
2019-04-21T13:49:21.669Z,30.40
2019-04-21T13:50:21.778Z,30.48
2019-04-21T13:51:22.908Z,30.88
2019-04-21T13:52:22.783Z,30.80
2019-04-21T13:53:22.742Z,30.86
2019-04-21T13:54:22.046Z,30.88
2019-04-21T13:55:21.673Z,30.88
2019-04-21T13:56:22.716Z,30.71
2019-04-21T13:57:22.702Z,30.75
2019-04-21T13:58:22.122Z,30.80
2019-04-21T13:59:22.476Z,30.82
2019-04-21T14:00:21.782Z,30.52
2019-04-21T14:01:23.419Z,30.51
2019-04-21T14:02:22.652Z,30.58
2019-04-21T14:04:23.214Z,30.52
2019-04-21T14:05:22.401Z,30.82
2019-04-21T14:06:22.573Z,30.45
2019-04-21T14:07:21.976Z,30.40
2019-04-21T14:08:23.039Z,30.10
2019-04-21T14:09:21.934Z,30.33
2019-04-21T14:10:21.951Z,30.22
2019-04-21T14:11:22.963Z,30.28
2019-04-21T14:12:23.360Z,30.35
2019-04-21T14:13:22.557Z,30.37
2019-04-21T14:14:21.980Z,30.30
2019-04-21T14:15:22.171Z,30.37
2019-04-21T14:17:22.484Z,30.14
2019-04-21T14:18:22.653Z,30.18
2019-04-21T14:19:21.718Z,30.22
2019-04-21T14:20:21.687Z,30.24
2019-04-21T14:21:23.118Z,30.43
2019-04-21T14:22:22.200Z,30.33
2019-04-21T14:23:32.227Z,30.43
2019-04-21T14:25:22.026Z,30.11
2019-04-21T14:26:22.487Z,30.00
2019-04-21T14:27:21.741Z,29.93
2019-04-21T14:28:22.048Z,30.02
2019-04-21T14:29:21.768Z,29.77
2019-04-21T14:30:22.774Z,29.89
2019-04-21T14:31:22.254Z,30.10
2019-04-21T14:32:22.347Z,29.68
2019-04-21T14:35:22.885Z,29.58
2019-04-21T14:36:22.910Z,29.65
2019-04-21T14:37:22.618Z,29.62
2019-04-21T14:38:22.761Z,29.68
2019-04-21T14:39:22.849Z,29.62
2019-04-21T14:40:24.366Z,29.80
2019-04-21T14:41:22.174Z,29.93
2019-04-21T14:42:22.219Z,29.98
2019-04-21T14:43:23.674Z,29.83
2019-04-21T14:44:22.755Z,29.86
2019-04-21T14:45:22.958Z,29.74
2019-04-21T14:46:21.811Z,29.68
2019-04-21T14:47:23.036Z,29.43
2019-04-21T14:48:23.124Z,29.39
2019-04-21T14:49:23.506Z,29.50
2019-04-21T14:50:22.347Z,29.50
2019-04-21T14:51:22.984Z,29.47
2019-04-21T14:52:23.072Z,29.70
2019-04-21T14:53:23.393Z,29.47
2019-04-21T14:54:22.526Z,29.62
2019-04-21T14:56:21.724Z,29.92
2019-04-21T14:58:23.278Z,29.93
2019-04-21T14:59:21.679Z,29.77
2019-04-21T15:00:22.868Z,29.66
2019-04-21T15:01:22.000Z,29.40
2019-04-21T15:02:22.334Z,29.46
2019-04-21T15:03:21.753Z,29.49
2019-04-21T15:04:22.456Z,29.47
2019-04-21T15:05:21.812Z,29.18
2019-04-21T15:06:21.614Z,29.17
2019-04-21T15:07:21.763Z,29.36
2019-04-21T15:08:21.627Z,29.18
2019-04-21T15:10:25.325Z,29.28
2019-04-21T15:11:22.218Z,29.33
2019-04-21T15:13:23.622Z,29.44
2019-04-21T15:14:22.254Z,29.47
2019-04-21T15:15:21.593Z,29.21
2019-04-21T15:16:22.828Z,28.61
2019-04-21T15:17:23.016Z,28.71
2019-04-21T15:18:22.945Z,28.75
2019-04-21T15:19:22.444Z,28.81
2019-04-21T15:20:23.386Z,28.77
2019-04-21T15:21:21.809Z,28.94
2019-04-21T15:22:21.698Z,29.12
2019-04-21T15:23:24.434Z,29.21
2019-04-21T15:24:22.480Z,29.04
2019-04-21T15:25:21.968Z,29.04
2019-04-21T15:26:22.083Z,29.19
2019-04-21T15:27:23.040Z,29.07
2019-04-21T15:28:22.004Z,29.19
2019-04-21T15:29:22.544Z,29.00
2019-04-21T15:30:22.678Z,28.80
2019-04-21T15:31:28.762Z,28.46
2019-04-21T15:32:22.295Z,28.52
2019-04-21T15:33:22.384Z,28.81
2019-04-21T15:34:23.956Z,28.68
2019-04-21T15:35:21.535Z,28.75
2019-04-21T15:36:22.815Z,28.50
2019-04-21T15:37:22.055Z,28.31
2019-04-21T15:38:22.240Z,28.17
2019-04-21T15:39:21.585Z,28.09
2019-04-21T15:40:32.169Z,27.98
2019-04-21T15:43:22.410Z,28.38
2019-04-21T15:45:21.604Z,28.61
2019-04-21T15:46:22.614Z,28.69
2019-04-21T15:47:22.021Z,28.66
2019-04-21T15:48:22.330Z,28.77
2019-04-21T15:49:22.956Z,28.57
2019-04-21T15:50:23.065Z,28.12
2019-04-21T15:51:22.038Z,27.88
2019-04-21T15:52:22.267Z,27.88
2019-04-21T15:53:21.891Z,28.00
2019-04-21T15:54:22.650Z,28.19
2019-04-21T15:55:22.885Z,28.16
2019-04-21T15:56:22.623Z,27.82
2019-04-21T15:57:21.908Z,27.98
2019-04-21T15:58:22.905Z,27.90
2019-04-21T15:59:22.200Z,27.50
2019-04-21T16:00:22.579Z,27.42
2019-04-21T16:01:22.840Z,27.57
2019-04-21T16:02:22.725Z,27.75
2019-04-21T16:04:23.028Z,27.85
2019-04-21T16:05:22.488Z,27.82
2019-04-21T16:07:22.347Z,27.20
2019-04-21T16:08:21.987Z,27.05
2019-04-21T16:09:25.925Z,27.22
2019-04-21T16:10:34.341Z,27.30
2019-04-21T16:11:21.936Z,27.37
2019-04-21T16:12:22.065Z,27.23
2019-04-21T16:13:21.713Z,27.32